sensor_id;sensor_type;location;lat;lon;timestamp;pressure;altitude;pressure_sealevel;temperature;humidity
62237;BME280;69163;48.778;2.308;2023-12-20T00:00:47;101375.88;;;17.48;32.96
62237;BME280;69163;48.778;2.308;2023-12-20T00:03:12;101384.44;;;17.39;32.99
62237;BME280;69163;48.778;2.308;2023-12-20T00:05:38;101386.07;;;17.48;33.07
62237;BME280;69163;48.778;2.308;2023-12-20T00:08:04;101391.94;;;17.50;33.15
62237;BME280;69163;48.778;2.308;2023-12-20T00:10:28;101402.03;;;17.27;33.25
62237;BME280;69163;48.778;2.308;2023-12-20T00:12:53;101405.10;;;17.74;33.34
62237;BME280;69163;48.778;2.308;2023-12-20T00:15:19;101418.05;;;17.55;33.31
62237;BME280;69163;48.778;2.308;2023-12-20T00:17:43;101419.05;;;17.58;33.28
62237;BME280;69163;48.778;2.308;2023-12-20T00:20:10;101419.77;;;17.59;33.29
62237;BME280;69163;48.778;2.308;2023-12-20T00:22:34;101422.21;;;17.42;33.21
62237;BME280;69163;48.778;2.308;2023-12-20T00:24:59;101426.80;;;17.94;33.24
62237;BME280;69163;48.778;2.308;2023-12-20T00:27:25;101429.25;;;17.69;33.29
62237;BME280;69163;48.778;2.308;2023-12-20T00:29:50;101430.25;;;17.48;33.22
62237;BME280;69163;48.778;2.308;2023-12-20T00:32:15;101432.36;;;17.77;33.18
62237;BME280;69163;48.778;2.308;2023-12-20T00:34:41;101434.59;;;17.58;33.13
62237;BME280;69163;48.778;2.308;2023-12-20T00:37:05;101442.21;;;17.83;33.13
62237;BME280;69163;48.778;2.308;2023-12-20T00:39:31;101445.65;;;17.65;33.16
62237;BME280;69163;48.778;2.308;2023-12-20T00:41:57;101444.21;;;17.69;33.07
62237;BME280;69163;48.778;2.308;2023-12-20T00:44:22;101442.05;;;17.98;32.95
62237;BME280;69163;48.778;2.308;2023-12-20T00:46:47;101444.65;;;17.81;32.89
62237;BME280;69163;48.778;2.308;2023-12-20T00:49:11;101436.33;;;17.85;32.87
62237;BME280;69163;48.778;2.308;2023-12-20T00:51:37;101436.86;;;17.88;32.80
62237;BME280;69163;48.778;2.308;2023-12-20T00:54:06;101437.50;;;17.92;32.72
62237;BME280;69163;48.778;2.308;2023-12-20T00:56:28;101442.44;;;18.44;32.67
62237;BME280;69163;48.778;2.308;2023-12-20T00:58:53;101442.01;;;18.03;32.63
62237;BME280;69163;48.778;2.308;2023-12-20T01:01:18;101446.13;;;17.99;32.67
62237;BME280;69163;48.778;2.308;2023-12-20T01:03:44;101443.36;;;18.26;32.53
62237;BME280;69163;48.778;2.308;2023-12-20T01:06:09;101446.83;;;18.04;32.38
62237;BME280;69163;48.778;2.308;2023-12-20T01:08:34;101442.19;;;18.30;32.28
62237;BME280;69163;48.778;2.308;2023-12-20T01:11:00;101433.58;;;18.06;32.17
62237;BME280;69163;48.778;2.308;2023-12-20T01:13:24;101435.42;;;18.06;32.12
62237;BME280;69163;48.778;2.308;2023-12-20T01:15:50;101434.57;;;18.08;32.03
62237;BME280;69163;48.778;2.308;2023-12-20T01:18:16;101438.82;;;18.14;31.92
62237;BME280;69163;48.778;2.308;2023-12-20T01:20:41;101441.82;;;18.12;31.90
62237;BME280;69163;48.778;2.308;2023-12-20T01:23:06;101458.86;;;18.15;31.80
62237;BME280;69163;48.778;2.308;2023-12-20T01:25:31;101459.73;;;18.16;31.72
62237;BME280;69163;48.778;2.308;2023-12-20T01:27:56;101470.25;;;18.41;31.65
62237;BME280;69163;48.778;2.308;2023-12-20T01:30:22;101473.73;;;18.11;31.66
62237;BME280;69163;48.778;2.308;2023-12-20T01:32:47;101471.59;;;18.03;31.71
62237;BME280;69163;48.778;2.308;2023-12-20T01:35:12;101472.28;;;18.23;31.70
62237;BME280;69163;48.778;2.308;2023-12-20T01:37:37;101470.54;;;17.96;31.69
62237;BME280;69163;48.778;2.308;2023-12-20T01:40:02;101473.34;;;17.98;31.75
62237;BME280;69163;48.778;2.308;2023-12-20T01:42:28;101475.08;;;17.98;31.59
62237;BME280;69163;48.778;2.308;2023-12-20T01:44:53;101465.32;;;17.98;31.55
62237;BME280;69163;48.778;2.308;2023-12-20T01:47:18;101471.88;;;18.20;31.52
62237;BME280;69163;48.778;2.308;2023-12-20T01:49:44;101477.81;;;17.95;31.51
62237;BME280;69163;48.778;2.308;2023-12-20T01:52:09;101478.57;;;17.91;31.50
62237;BME280;69163;48.778;2.308;2023-12-20T01:54:36;101478.56;;;17.93;31.45
62237;BME280;69163;48.778;2.308;2023-12-20T01:56:59;101479.65;;;18.15;31.43
62237;BME280;69163;48.778;2.308;2023-12-20T01:59:24;101487.73;;;17.91;31.39
62237;BME280;69163;48.778;2.308;2023-12-20T02:01:50;101489.04;;;17.92;31.35
62237;BME280;69163;48.778;2.308;2023-12-20T02:04:15;101486.30;;;17.68;31.31
62237;BME280;69163;48.778;2.308;2023-12-20T02:06:41;101488.46;;;18.19;31.24
62237;BME280;69163;48.778;2.308;2023-12-20T02:09:06;101492.68;;;17.93;31.23
62237;BME280;69163;48.778;2.308;2023-12-20T02:11:31;101500.72;;;18.16;31.22
62237;BME280;69163;48.778;2.308;2023-12-20T02:13:56;101504.47;;;17.90;31.23
62237;BME280;69163;48.778;2.308;2023-12-20T02:16:21;101503.08;;;17.68;31.18
62237;BME280;69163;48.778;2.308;2023-12-20T02:18:47;101504.64;;;18.14;31.15
62237;BME280;69163;48.778;2.308;2023-12-20T02:21:12;101506.62;;;17.88;31.14
62237;BME280;69163;48.778;2.308;2023-12-20T02:23:36;101509.50;;;17.66;31.10
62237;BME280;69163;48.778;2.308;2023-12-20T02:26:03;101517.26;;;17.88;31.10
62237;BME280;69163;48.778;2.308;2023-12-20T02:28:28;101521.62;;;17.83;31.12
62237;BME280;69163;48.778;2.308;2023-12-20T02:30:53;101520.86;;;18.07;31.12
62237;BME280;69163;48.778;2.308;2023-12-20T02:33:18;101521.05;;;17.77;31.14
62237;BME280;69163;48.778;2.308;2023-12-20T02:35:43;101513.42;;;17.78;31.10
62237;BME280;69163;48.778;2.308;2023-12-20T02:38:09;101513.85;;;18.01;31.11
62237;BME280;69163;48.778;2.308;2023-12-20T02:40:34;101516.89;;;17.77;31.08
62237;BME280;69163;48.778;2.308;2023-12-20T02:43:00;101521.16;;;17.98;31.08
62237;BME280;69163;48.778;2.308;2023-12-20T02:45:24;101526.88;;;17.72;31.07
62237;BME280;69163;48.778;2.308;2023-12-20T02:47:49;101530.32;;;17.69;31.07
62237;BME280;69163;48.778;2.308;2023-12-20T02:50:15;101536.55;;;17.91;31.09
62237;BME280;69163;48.778;2.308;2023-12-20T02:52:40;101537.96;;;17.89;31.08
62237;BME280;69163;48.778;2.308;2023-12-20T02:55:05;101533.49;;;17.40;31.08
62237;BME280;69163;48.778;2.308;2023-12-20T02:57:30;101530.22;;;17.86;31.07
62237;BME280;69163;48.778;2.308;2023-12-20T02:59:56;101531.49;;;17.61;31.08
62237;BME280;69163;48.778;2.308;2023-12-20T03:02:20;101535.97;;;17.63;31.05
62237;BME280;69163;48.778;2.308;2023-12-20T03:04:46;101535.05;;;17.63;31.02
62237;BME280;69163;48.778;2.308;2023-12-20T03:07:12;101530.12;;;17.33;31.05
62237;BME280;69163;48.778;2.308;2023-12-20T03:09:37;101534.39;;;17.79;31.05
62237;BME280;69163;48.778;2.308;2023-12-20T03:12:02;101537.98;;;17.53;31.05
62237;BME280;69163;48.778;2.308;2023-12-20T03:14:27;101540.97;;;17.50;31.06
62237;BME280;69163;48.778;2.308;2023-12-20T03:16:52;101542.14;;;17.48;31.05
62237;BME280;69163;48.778;2.308;2023-12-20T03:19:18;101547.11;;;18.02;30.99
62237;BME280;69163;48.778;2.308;2023-12-20T03:21:42;101535.00;;;17.52;30.98
62237;BME280;69163;48.778;2.308;2023-12-20T03:24:08;101527.61;;;17.73;30.99
62237;BME280;69163;48.778;2.308;2023-12-20T03:26:33;101530.69;;;17.45;31.00
62237;BME280;69163;48.778;2.308;2023-12-20T03:28:58;101532.78;;;17.66;31.02
62237;BME280;69163;48.778;2.308;2023-12-20T03:31:25;101531.87;;;17.42;31.01
62237;BME280;69163;48.778;2.308;2023-12-20T03:33:49;101531.69;;;17.41;31.01
62237;BME280;69163;48.778;2.308;2023-12-20T03:36:14;101531.38;;;17.41;30.98
62237;BME280;69163;48.778;2.308;2023-12-20T03:38:40;101529.77;;;17.44;30.94
62237;BME280;69163;48.778;2.308;2023-12-20T03:41:04;101532.32;;;17.43;30.93
62237;BME280;69163;48.778;2.308;2023-12-20T03:43:30;101534.41;;;17.40;30.92
62237;BME280;69163;48.778;2.308;2023-12-20T03:45:55;101536.30;;;17.41;30.91
62237;BME280;69163;48.778;2.308;2023-12-20T03:48:20;101535.47;;;17.84;30.95
62237;BME280;69163;48.778;2.308;2023-12-20T03:50:46;101531.26;;;17.36;30.95
62237;BME280;69163;48.778;2.308;2023-12-20T03:53:10;101539.78;;;17.58;30.96
62237;BME280;69163;48.778;2.308;2023-12-20T03:55:37;101535.17;;;17.57;30.95
62237;BME280;69163;48.778;2.308;2023-12-20T03:58:02;101538.91;;;17.33;30.93
62237;BME280;69163;48.778;2.308;2023-12-20T04:00:27;101536.28;;;17.58;30.91
62237;BME280;69163;48.778;2.308;2023-12-20T04:02:52;101539.90;;;17.36;30.86
62237;BME280;69163;48.778;2.308;2023-12-20T04:05:17;101544.47;;;17.34;30.87
62237;BME280;69163;48.778;2.308;2023-12-20T04:07:43;101547.22;;;17.31;30.89
62237;BME280;69163;48.778;2.308;2023-12-20T04:10:08;101542.07;;;17.27;30.91
62237;BME280;69163;48.778;2.308;2023-12-20T04:12:33;101544.70;;;17.53;30.89
62237;BME280;69163;48.778;2.308;2023-12-20T04:14:58;101539.03;;;17.51;30.89
62237;BME280;69163;48.778;2.308;2023-12-20T04:17:23;101534.77;;;17.26;30.88
62237;BME280;69163;48.778;2.308;2023-12-20T04:19:49;101535.54;;;17.53;30.86
62237;BME280;69163;48.778;2.308;2023-12-20T04:22:14;101534.64;;;17.27;30.84
62237;BME280;69163;48.778;2.308;2023-12-20T04:24:39;101535.99;;;17.53;30.81
62237;BME280;69163;48.778;2.308;2023-12-20T04:27:05;101531.63;;;17.27;30.82
62237;BME280;69163;48.778;2.308;2023-12-20T04:29:29;101528.69;;;17.27;30.81
62237;BME280;69163;48.778;2.308;2023-12-20T04:31:56;101532.79;;;17.48;30.83
62237;BME280;69163;48.778;2.308;2023-12-20T04:34:21;101542.31;;;17.48;30.81
62237;BME280;69163;48.778;2.308;2023-12-20T04:36:45;101547.99;;;17.47;30.81
62237;BME280;69163;48.778;2.308;2023-12-20T04:39:12;101550.14;;;17.26;30.78
62237;BME280;69163;48.778;2.308;2023-12-20T04:41:36;101553.18;;;17.24;30.78
62237;BME280;69163;48.778;2.308;2023-12-20T04:44:02;101547.13;;;17.45;30.80
62237;BME280;69163;48.778;2.308;2023-12-20T04:46:26;101542.12;;;17.44;30.79
62237;BME280;69163;48.778;2.308;2023-12-20T04:48:51;101536.34;;;17.67;30.78
62237;BME280;69163;48.778;2.308;2023-12-20T04:51:17;101540.59;;;17.45;30.77
62237;BME280;69163;48.778;2.308;2023-12-20T04:53:42;101541.40;;;17.20;30.76
62237;BME280;69163;48.778;2.308;2023-12-20T04:56:07;101546.84;;;17.45;30.75
62237;BME280;69163;48.778;2.308;2023-12-20T04:58:33;101550.68;;;17.21;30.74
62237;BME280;69163;48.778;2.308;2023-12-20T05:00:57;101551.13;;;17.45;30.71
62237;BME280;69163;48.778;2.308;2023-12-20T05:03:23;101545.93;;;17.45;30.70
62237;BME280;69163;48.778;2.308;2023-12-20T05:05:48;101541.90;;;17.19;30.70
62237;BME280;69163;48.778;2.308;2023-12-20T05:08:14;101541.43;;;17.40;30.72
62237;BME280;69163;48.778;2.308;2023-12-20T05:10:38;101540.60;;;17.13;30.73
62237;BME280;69163;48.778;2.308;2023-12-20T05:13:04;101544.34;;;17.13;30.72
62237;BME280;69163;48.778;2.308;2023-12-20T05:15:30;101548.34;;;17.15;30.68
62237;BME280;69163;48.778;2.308;2023-12-20T05:17:54;101549.37;;;17.63;30.68
62237;BME280;69163;48.778;2.308;2023-12-20T05:20:20;101550.23;;;17.38;30.67
62237;BME280;69163;48.778;2.308;2023-12-20T05:22:45;101548.93;;;17.15;30.66
62237;BME280;69163;48.778;2.308;2023-12-20T05:25:10;101549.70;;;17.37;30.68
62237;BME280;69163;48.778;2.308;2023-12-20T05:27:35;101545.64;;;17.14;30.64
62237;BME280;69163;48.778;2.308;2023-12-20T05:30:01;101544.93;;;17.39;30.62
62237;BME280;69163;48.778;2.308;2023-12-20T05:32:26;101550.72;;;17.61;30.61
62237;BME280;69163;48.778;2.308;2023-12-20T05:34:51;101546.82;;;17.38;30.59
62237;BME280;69163;48.778;2.308;2023-12-20T05:37:16;101556.10;;;17.40;30.57
62237;BME280;69163;48.778;2.308;2023-12-20T05:39:42;101558.74;;;17.63;30.56
62237;BME280;69163;48.778;2.308;2023-12-20T05:42:07;101564.21;;;17.37;30.57
62237;BME280;69163;48.778;2.308;2023-12-20T05:44:32;101563.32;;;17.12;30.57
62237;BME280;69163;48.778;2.308;2023-12-20T05:46:57;101560.40;;;17.34;30.57
62237;BME280;69163;48.778;2.308;2023-12-20T05:49:23;101562.67;;;17.33;30.58
62237;BME280;69163;48.778;2.308;2023-12-20T05:51:47;101562.83;;;17.57;30.56
62237;BME280;69163;48.778;2.308;2023-12-20T05:54:13;101566.81;;;17.36;30.52
62237;BME280;69163;48.778;2.308;2023-12-20T05:56:38;101574.61;;;17.37;30.51
62237;BME280;69163;48.778;2.308;2023-12-20T05:59:04;101575.33;;;17.61;30.49
62237;BME280;69163;48.778;2.308;2023-12-20T06:01:29;101572.93;;;17.36;30.47
62237;BME280;69163;48.778;2.308;2023-12-20T06:03:53;101577.24;;;17.12;30.46
62237;BME280;69163;48.778;2.308;2023-12-20T06:06:19;101577.48;;;17.57;30.48
62237;BME280;69163;48.778;2.308;2023-12-20T06:08:46;101578.11;;;17.35;30.47
62237;BME280;69163;48.778;2.308;2023-12-20T06:11:10;101586.74;;;17.57;30.47
62237;BME280;69163;48.778;2.308;2023-12-20T06:13:35;101590.47;;;17.36;30.43
62237;BME280;69163;48.778;2.308;2023-12-20T06:16:00;101590.90;;;17.09;30.44
62237;BME280;69163;48.778;2.308;2023-12-20T06:18:26;101588.60;;;17.56;30.44
62237;BME280;69163;48.778;2.308;2023-12-20T06:20:51;101589.73;;;17.31;30.43
62237;BME280;69163;48.778;2.308;2023-12-20T06:23:16;101593.63;;;17.06;30.43
62237;BME280;69163;48.778;2.308;2023-12-20T06:25:42;101590.20;;;17.29;30.42
62237;BME280;69163;48.778;2.308;2023-12-20T06:28:07;101588.67;;;17.29;30.42
62237;BME280;69163;48.778;2.308;2023-12-20T06:30:31;101587.50;;;17.05;30.41
62237;BME280;69163;48.778;2.308;2023-12-20T06:32:57;101588.20;;;17.28;30.40
62237;BME280;69163;48.778;2.308;2023-12-20T06:35:22;101585.50;;;17.30;30.37
62237;BME280;69163;48.778;2.308;2023-12-20T06:37:47;101587.04;;;17.30;30.34
62237;BME280;69163;48.778;2.308;2023-12-20T06:40:13;101583.28;;;17.32;30.33
62237;BME280;69163;48.778;2.308;2023-12-20T06:42:38;101580.94;;;17.31;30.32
62237;BME280;69163;48.778;2.308;2023-12-20T06:45:06;101578.87;;;17.54;30.31
62237;BME280;69163;48.778;2.308;2023-12-20T06:47:28;101579.82;;;17.31;30.29
62237;BME280;69163;48.778;2.308;2023-12-20T06:49:54;101580.81;;;17.08;30.28
62237;BME280;69163;48.778;2.308;2023-12-20T06:52:19;101580.23;;;17.28;30.30
62237;BME280;69163;48.778;2.308;2023-12-20T06:54:44;101582.59;;;17.30;30.26
62237;BME280;69163;48.778;2.308;2023-12-20T06:57:09;101585.99;;;17.05;30.26
62237;BME280;69163;48.778;2.308;2023-12-20T06:59:39;101582.23;;;17.31;30.25
62237;BME280;69163;48.778;2.308;2023-12-20T07:02:00;101583.68;;;17.06;30.24
62237;BME280;69163;48.778;2.308;2023-12-20T07:04:25;101582.76;;;17.30;30.21
62237;BME280;69163;48.778;2.308;2023-12-20T07:06:50;101585.83;;;17.04;30.23
62237;BME280;69163;48.778;2.308;2023-12-20T07:09:15;101587.67;;;17.29;30.21
62237;BME280;69163;48.778;2.308;2023-12-20T07:11:41;101593.10;;;17.30;30.21
62237;BME280;69163;48.778;2.308;2023-12-20T07:14:06;101592.47;;;17.53;30.20
62237;BME280;69163;48.778;2.308;2023-12-20T07:16:31;101599.51;;;17.29;30.18
62237;BME280;69163;48.778;2.308;2023-12-20T07:18:57;101601.97;;;17.29;30.20
62237;BME280;69163;48.778;2.308;2023-12-20T07:21:23;101593.90;;;17.27;30.20
62237;BME280;69163;48.778;2.308;2023-12-20T07:23:47;101595.56;;;17.48;30.22
62237;BME280;69163;48.778;2.308;2023-12-20T07:26:12;101603.79;;;17.00;30.23
62237;BME280;69163;48.778;2.308;2023-12-20T07:28:38;101604.85;;;17.50;30.20
62237;BME280;69163;48.778;2.308;2023-12-20T07:31:03;101610.18;;;17.49;30.20
62237;BME280;69163;48.778;2.308;2023-12-20T07:33:28;101617.02;;;17.03;30.17
62237;BME280;69163;48.778;2.308;2023-12-20T07:35:54;101615.11;;;17.03;30.17
62237;BME280;69163;48.778;2.308;2023-12-20T07:38:19;101622.84;;;17.27;30.18
62237;BME280;69163;48.778;2.308;2023-12-20T07:40:43;101623.72;;;17.24;30.20
62237;BME280;69163;48.778;2.308;2023-12-20T07:43:09;101623.86;;;17.24;30.20
62237;BME280;69163;48.778;2.308;2023-12-20T07:45:35;101625.45;;;17.01;30.20
62237;BME280;69163;48.778;2.308;2023-12-20T07:48:00;101624.04;;;17.51;30.18
62237;BME280;69163;48.778;2.308;2023-12-20T07:50:25;101625.28;;;17.25;30.17
62237;BME280;69163;48.778;2.308;2023-12-20T07:52:49;101624.09;;;17.28;30.14
62237;BME280;69163;48.778;2.308;2023-12-20T07:55:15;101623.13;;;17.26;30.14
62237;BME280;69163;48.778;2.308;2023-12-20T07:57:41;101623.94;;;17.24;30.18
62237;BME280;69163;48.778;2.308;2023-12-20T08:00:07;101622.61;;;17.47;30.18
62237;BME280;69163;48.778;2.308;2023-12-20T08:02:31;101626.48;;;17.22;30.18
62237;BME280;69163;48.778;2.308;2023-12-20T08:04:56;101629.40;;;17.24;30.17
62237;BME280;69163;48.778;2.308;2023-12-20T08:07:22;101630.20;;;17.46;30.18
62237;BME280;69163;48.778;2.308;2023-12-20T08:09:47;101628.94;;;17.25;30.15
62237;BME280;69163;48.778;2.308;2023-12-20T08:12:12;101626.21;;;17.02;30.13
62237;BME280;69163;48.778;2.308;2023-12-20T08:14:37;101626.35;;;17.49;30.14
62237;BME280;69163;48.778;2.308;2023-12-20T08:17:03;101624.17;;;17.24;30.16
62237;BME280;69163;48.778;2.308;2023-12-20T08:19:27;101620.50;;;17.45;30.16
62237;BME280;69163;48.778;2.308;2023-12-20T08:21:54;101623.48;;;17.19;30.19
62237;BME280;69163;48.778;2.308;2023-12-20T08:24:18;101624.28;;;17.21;30.15
62237;BME280;69163;48.778;2.308;2023-12-20T08:26:44;101628.62;;;17.21;30.15
62237;BME280;69163;48.778;2.308;2023-12-20T08:29:09;101628.64;;;17.22;30.13
62237;BME280;69163;48.778;2.308;2023-12-20T08:31:34;101626.54;;;16.97;30.13
62237;BME280;69163;48.778;2.308;2023-12-20T08:34:01;101620.93;;;17.21;30.12
62237;BME280;69163;48.778;2.308;2023-12-20T08:36:25;101614.90;;;17.20;30.12
62237;BME280;69163;48.778;2.308;2023-12-20T08:38:49;101615.25;;;17.46;30.10
62237;BME280;69163;48.778;2.308;2023-12-20T08:41:16;101613.56;;;17.19;30.12
62237;BME280;69163;48.778;2.308;2023-12-20T08:43:41;101610.68;;;17.19;30.12
62237;BME280;69163;48.778;2.308;2023-12-20T08:46:07;101612.10;;;17.19;30.10
62237;BME280;69163;48.778;2.308;2023-12-20T08:48:31;101611.06;;;17.41;30.12
62237;BME280;69163;48.778;2.308;2023-12-20T08:50:56;101617.59;;;17.18;30.11
62237;BME280;69163;48.778;2.308;2023-12-20T08:53:21;101630.46;;;17.46;30.07
62237;BME280;69163;48.778;2.308;2023-12-20T08:55:47;101632.26;;;17.20;30.07
62237;BME280;69163;48.778;2.308;2023-12-20T08:58:11;101632.96;;;16.97;30.07
62237;BME280;69163;48.778;2.308;2023-12-20T09:00:37;101633.19;;;17.18;30.09
62237;BME280;69163;48.778;2.308;2023-12-20T09:03:03;101636.05;;;17.18;30.06
62237;BME280;69163;48.778;2.308;2023-12-20T09:05:28;101635.63;;;17.43;30.05
62237;BME280;69163;48.778;2.308;2023-12-20T09:07:53;101635.80;;;17.20;30.04
62237;BME280;69163;48.778;2.308;2023-12-20T09:10:18;101635.19;;;17.43;30.03
62237;BME280;69163;48.778;2.308;2023-12-20T09:12:43;101632.21;;;17.43;30.04
62237;BME280;69163;48.778;2.308;2023-12-20T09:15:09;101629.33;;;16.93;30.05
62237;BME280;69163;48.778;2.308;2023-12-20T09:17:33;101634.41;;;17.15;30.08
62237;BME280;69163;48.778;2.308;2023-12-20T09:19:59;101634.02;;;16.89;30.09
62237;BME280;69163;48.778;2.308;2023-12-20T09:22:25;101632.95;;;17.13;30.10
62237;BME280;69163;48.778;2.308;2023-12-20T09:24:49;101631.14;;;17.15;30.08
62237;BME280;69163;48.778;2.308;2023-12-20T09:27:15;101630.69;;;17.16;30.07
62237;BME280;69163;48.778;2.308;2023-12-20T09:29:39;101626.54;;;16.92;30.05
62237;BME280;69163;48.778;2.308;2023-12-20T09:32:06;101628.56;;;17.15;30.05
62237;BME280;69163;48.778;2.308;2023-12-20T09:34:31;101630.66;;;17.42;30.03
62237;BME280;69163;48.778;2.308;2023-12-20T09:36:56;101615.92;;;17.40;30.02
62237;BME280;69163;48.778;2.308;2023-12-20T09:39:21;101621.70;;;16.93;30.04
62237;BME280;69163;48.778;2.308;2023-12-20T09:41:55;101625.09;;;16.91;30.05
62237;BME280;69163;48.778;2.308;2023-12-20T09:44:15;101629.84;;;17.37;30.07
62237;BME280;69163;48.778;2.308;2023-12-20T09:46:39;101628.66;;;17.15;30.04
62237;BME280;69163;48.778;2.308;2023-12-20T09:49:02;101629.17;;;16.92;30.04
62237;BME280;69163;48.778;2.308;2023-12-20T09:51:28;101632.12;;;17.15;30.04
62237;BME280;69163;48.778;2.308;2023-12-20T09:53:54;101635.94;;;17.17;30.03
62237;BME280;69163;48.778;2.308;2023-12-20T09:56:18;101637.77;;;17.38;30.04
62237;BME280;69163;48.778;2.308;2023-12-20T09:58:43;101640.02;;;17.11;30.08
62237;BME280;69163;48.778;2.308;2023-12-20T10:01:08;101644.45;;;16.88;30.08
62237;BME280;69163;48.778;2.308;2023-12-20T10:03:34;101649.02;;;17.12;30.07
62237;BME280;69163;48.778;2.308;2023-12-20T10:05:59;101647.92;;;17.10;30.08
62237;BME280;69163;48.778;2.308;2023-12-20T10:08:24;101642.18;;;16.87;30.09
62237;BME280;69163;48.778;2.308;2023-12-20T10:10:51;101648.14;;;17.13;30.09
62237;BME280;69163;48.778;2.308;2023-12-20T10:13:15;101649.05;;;17.12;30.09
62237;BME280;69163;48.778;2.308;2023-12-20T10:15:40;101638.63;;;17.37;30.07
62237;BME280;69163;48.778;2.308;2023-12-20T10:18:06;101645.81;;;16.91;30.44
62237;BME280;69163;48.778;2.308;2023-12-20T10:20:30;101640.58;;;16.80;31.11
62237;BME280;69163;48.778;2.308;2023-12-20T10:22:56;101634.63;;;17.00;31.17
62237;BME280;69163;48.778;2.308;2023-12-20T10:25:21;101642.84;;;16.50;31.38
62237;BME280;69163;48.778;2.308;2023-12-20T10:27:46;101634.93;;;16.99;31.56
62237;BME280;69163;48.778;2.308;2023-12-20T10:30:12;101623.10;;;16.79;31.73
62237;BME280;69163;48.778;2.308;2023-12-20T10:32:36;101612.55;;;16.84;31.74
62237;BME280;69163;48.778;2.308;2023-12-20T10:35:03;101610.10;;;16.90;31.86
62237;BME280;69163;48.778;2.308;2023-12-20T10:37:27;101606.12;;;16.95;31.89
62237;BME280;69163;48.778;2.308;2023-12-20T10:39:53;101596.66;;;17.22;31.93
62237;BME280;69163;48.778;2.308;2023-12-20T10:42:18;101597.53;;;17.24;31.95
62237;BME280;69163;48.778;2.308;2023-12-20T10:44:42;101597.63;;;16.71;32.06
62237;BME280;69163;48.778;2.308;2023-12-20T10:47:09;101601.68;;;17.22;32.18
62237;BME280;69163;48.778;2.308;2023-12-20T10:49:36;101612.71;;;17.02;32.36
62237;BME280;69163;48.778;2.308;2023-12-20T10:52:00;101616.97;;;17.36;32.37
62237;BME280;69163;48.778;2.308;2023-12-20T10:54:24;101616.70;;;17.12;32.47
62237;BME280;69163;48.778;2.308;2023-12-20T10:56:52;101600.56;;;17.28;32.71
62237;BME280;69163;48.778;2.308;2023-12-20T10:59:17;101602.72;;;17.37;32.74
62237;BME280;69163;48.778;2.308;2023-12-20T11:01:40;101589.68;;;17.21;32.69
62237;BME280;69163;48.778;2.308;2023-12-20T11:04:06;101584.55;;;17.00;32.71
62237;BME280;69163;48.778;2.308;2023-12-20T11:06:36;101591.48;;;17.53;32.74
62237;BME280;69163;48.778;2.308;2023-12-20T11:09:03;101585.81;;;17.56;32.73
62237;BME280;69163;48.778;2.308;2023-12-20T11:11:26;101577.30;;;17.11;32.78
62237;BME280;69163;48.778;2.308;2023-12-20T11:13:54;101580.59;;;17.67;32.73
62237;BME280;69163;48.778;2.308;2023-12-20T11:16:11;101578.43;;;17.22;32.74
62237;BME280;69163;48.778;2.308;2023-12-20T11:18:35;101578.68;;;17.33;32.61
62237;BME280;69163;48.778;2.308;2023-12-20T11:21:02;101569.87;;;17.72;32.43
62237;BME280;69163;48.778;2.308;2023-12-20T11:23:27;101561.58;;;17.51;32.37
62237;BME280;69163;48.778;2.308;2023-12-20T11:25:53;101562.87;;;18.03;32.33
62237;BME280;69163;48.778;2.308;2023-12-20T11:28:21;101568.89;;;17.84;32.25
62237;BME280;69163;48.778;2.308;2023-12-20T11:30:45;101563.65;;;17.60;32.25
62237;BME280;69163;48.778;2.308;2023-12-20T11:33:08;101566.79;;;17.63;32.24
62237;BME280;69163;48.778;2.308;2023-12-20T11:35:33;101565.92;;;17.70;32.18
62237;BME280;69163;48.778;2.308;2023-12-20T11:37:58;101552.62;;;17.72;32.11
62237;BME280;69163;48.778;2.308;2023-12-20T11:40:23;101550.79;;;17.79;32.01
62237;BME280;69163;48.778;2.308;2023-12-20T11:42:50;101548.43;;;17.86;31.94
62237;BME280;69163;48.778;2.308;2023-12-20T11:45:16;101555.06;;;18.11;31.95
62237;BME280;69163;48.778;2.308;2023-12-20T11:47:39;101544.86;;;18.13;31.91
62237;BME280;69163;48.778;2.308;2023-12-20T11:50:05;101547.71;;;17.88;31.91
62237;BME280;69163;48.778;2.308;2023-12-20T11:52:29;101543.17;;;17.96;31.80
62237;BME280;69163;48.778;2.308;2023-12-20T11:54:55;101550.15;;;18.22;31.80
62237;BME280;69163;48.778;2.308;2023-12-20T11:57:20;101540.37;;;17.53;31.74
62237;BME280;69163;48.778;2.308;2023-12-20T11:59:46;101550.31;;;18.34;31.65
62237;BME280;69163;48.778;2.308;2023-12-20T12:02:12;101557.12;;;18.10;31.70
62237;BME280;69163;48.778;2.308;2023-12-20T12:04:35;101540.49;;;17.67;31.56
62237;BME280;69163;48.778;2.308;2023-12-20T12:07:01;101535.49;;;18.09;31.54
62237;BME280;69163;48.778;2.308;2023-12-20T12:09:26;101544.49;;;18.09;31.52
62237;BME280;69163;48.778;2.308;2023-12-20T12:11:51;101548.90;;;18.11;31.42
62237;BME280;69163;48.778;2.308;2023-12-20T12:14:17;101554.33;;;18.14;31.35
62237;BME280;69163;48.778;2.308;2023-12-20T12:16:42;101552.11;;;17.58;31.51
62237;BME280;69163;48.778;2.308;2023-12-20T12:19:07;101548.15;;;18.18;31.42
62237;BME280;69163;48.778;2.308;2023-12-20T12:21:32;101546.90;;;17.84;31.57
62237;BME280;69163;48.778;2.308;2023-12-20T12:24:06;101547.08;;;18.28;32.30
62237;BME280;69163;48.778;2.308;2023-12-20T12:26:25;101547.49;;;18.00;32.71
62237;BME280;69163;48.778;2.308;2023-12-20T12:28:47;101538.84;;;18.09;33.00
62237;BME280;69163;48.778;2.308;2023-12-20T12:31:14;101534.06;;;18.06;33.26
62237;BME280;69163;48.778;2.308;2023-12-20T12:33:38;101533.40;;;17.79;33.34
62237;BME280;69163;48.778;2.308;2023-12-20T12:36:06;101526.64;;;18.11;33.31
62237;BME280;69163;48.778;2.308;2023-12-20T12:38:30;101525.25;;;17.86;33.34